createdAt,value
2023-03-25T00:01:09.029Z,63.37
2023-03-25T00:03:41.978Z,63.49
2023-03-25T00:06:10.640Z,63.82
2023-03-25T00:08:37.328Z,64.67
2023-03-25T00:11:04.844Z,65.96
2023-03-25T00:13:34.261Z,65.30
2023-03-25T00:16:02.465Z,65.02
2023-03-25T00:18:33.666Z,65.22
2023-03-25T00:21:02.301Z,64.88
2023-03-25T00:23:30.656Z,64.24
2023-03-25T00:26:01.278Z,64.24
2023-03-25T00:28:30.880Z,64.39
2023-03-25T00:31:09.477Z,64.51
2023-03-25T00:33:35.956Z,64.02
2023-03-25T00:36:04.496Z,64.31
2023-03-25T00:38:37.867Z,63.58
2023-03-25T00:41:37.175Z,64.07
2023-03-25T00:44:04.515Z,63.59
2023-03-25T00:46:32.508Z,63.06
2023-03-25T00:48:59.851Z,63.50
2023-03-25T00:51:28.407Z,63.20
2023-03-25T00:53:56.940Z,63.33
2023-03-25T00:56:24.208Z,62.75
2023-03-25T00:58:51.270Z,62.24
2023-03-25T01:01:23.380Z,62.08
2023-03-25T01:03:57.753Z,62.82
2023-03-25T01:06:35.506Z,61.70
2023-03-25T01:09:05.738Z,61.65
2023-03-25T01:11:38.301Z,62.24
2023-03-25T01:14:07.084Z,62.13
2023-03-25T01:16:34.023Z,62.08
2023-03-25T01:19:00.722Z,61.97
2023-03-25T01:21:27.305Z,61.43
2023-03-25T01:23:54.137Z,61.32
2023-03-25T01:26:20.573Z,61.60
2023-03-25T01:28:47.232Z,61.22
2023-03-25T01:31:14.957Z,62.24
2023-03-25T01:33:41.524Z,62.32
2023-03-25T01:36:09.660Z,61.62
2023-03-25T01:38:37.206Z,62.08
2023-03-25T01:41:04.473Z,62.70
2023-03-25T01:43:31.882Z,60.79
2023-03-25T01:45:58.954Z,60.41
2023-03-25T01:48:32.977Z,60.20
2023-03-25T01:51:08.224Z,61.11
2023-03-25T01:53:35.030Z,61.29
2023-03-25T01:56:03.698Z,63.62
2023-03-25T01:58:31.446Z,63.88
2023-03-25T02:00:58.557Z,64.28
2023-03-25T02:03:25.370Z,64.11
2023-03-25T02:06:03.670Z,62.72
2023-03-25T02:08:33.159Z,63.68
2023-03-25T02:10:59.683Z,63.81
2023-03-25T02:13:26.675Z,62.95
2023-03-25T02:16:30.959Z,62.34
2023-03-25T02:19:32.893Z,62.80
2023-03-25T02:22:11.838Z,61.73
2023-03-25T02:25:01.893Z,60.72
2023-03-25T02:27:42.042Z,62.10
2023-03-25T02:30:30.950Z,61.58
2023-03-25T02:33:12.998Z,60.51
2023-03-25T02:36:10.619Z,60.42
2023-03-25T02:38:47.350Z,61.69
2023-03-25T02:41:41.882Z,62.06
2023-03-25T02:44:15.408Z,62.36
2023-03-25T02:46:46.808Z,61.70
2023-03-25T02:49:19.448Z,61.41
2023-03-25T02:52:12.356Z,61.09
2023-03-25T02:54:41.491Z,60.96
2023-03-25T02:57:09.843Z,60.17
2023-03-25T02:59:38.555Z,59.65
2023-03-25T03:02:09.059Z,59.38
2023-03-25T03:04:47.118Z,59.32
2023-03-25T03:07:32.625Z,59.93
2023-03-25T03:10:19.396Z,59.84
2023-03-25T03:13:19.996Z,59.75
2023-03-25T03:15:55.690Z,58.83
2023-03-25T03:18:38.110Z,59.34
2023-03-25T03:21:10.035Z,59.35
2023-03-25T03:24:00.590Z,58.98
2023-03-25T03:26:43.373Z,59.18
2023-03-25T03:29:18.879Z,58.78
2023-03-25T03:32:06.237Z,58.47
2023-03-25T03:34:46.930Z,57.92
2023-03-25T03:37:17.188Z,57.52
2023-03-25T03:39:46.772Z,58.46
2023-03-25T03:42:18.880Z,57.63
2023-03-25T03:44:50.136Z,58.25
2023-03-25T03:47:23.110Z,58.60
2023-03-25T03:49:54.281Z,58.67
2023-03-25T03:52:25.604Z,57.77
2023-03-25T03:54:56.467Z,58.42
2023-03-25T03:57:27.928Z,58.33
2023-03-25T04:00:15.486Z,59.41
2023-03-25T04:02:47.813Z,58.99
2023-03-25T04:05:16.905Z,58.62
2023-03-25T04:07:54.807Z,59.19
2023-03-25T04:10:23.376Z,62.46
2023-03-25T04:12:53.572Z,62.69
2023-03-25T04:15:20.384Z,63.22
2023-03-25T04:17:48.215Z,64.44
2023-03-25T04:20:17.368Z,63.88
2023-03-25T04:22:45.873Z,63.95
2023-03-25T04:25:13.944Z,64.09
2023-03-25T04:27:40.720Z,64.23
2023-03-25T04:30:08.798Z,64.38
2023-03-25T04:32:35.455Z,63.42
2023-03-25T04:35:02.375Z,63.37
2023-03-25T04:37:29.486Z,63.11
2023-03-25T04:39:59.980Z,62.60
2023-03-25T04:42:33.247Z,63.40
2023-03-25T04:45:00.045Z,61.75
2023-03-25T04:47:27.628Z,62.35
2023-03-25T04:49:54.375Z,62.03
2023-03-25T04:52:20.947Z,63.12
2023-03-25T04:54:47.785Z,63.45
2023-03-25T04:57:15.284Z,62.72
2023-03-25T04:59:42.303Z,63.57
2023-03-25T05:02:13.410Z,62.40
2023-03-25T05:04:47.541Z,62.73
2023-03-25T05:07:16.409Z,62.32
2023-03-25T05:09:43.416Z,63.01
2023-03-25T05:12:11.316Z,62.92
2023-03-25T05:14:38.059Z,62.52
2023-03-25T05:17:04.530Z,63.17
2023-03-25T05:19:35.061Z,63.36
2023-03-25T05:22:02.793Z,62.88
2023-03-25T05:24:29.334Z,62.97
2023-03-25T05:26:56.007Z,62.30
2023-03-25T05:29:22.715Z,62.92
2023-03-25T05:31:49.466Z,62.24
2023-03-25T05:34:17.095Z,62.64
2023-03-25T05:36:43.939Z,61.99
2023-03-25T05:39:11.037Z,60.87
2023-03-25T05:41:41.608Z,62.44
2023-03-25T05:44:09.633Z,62.43
2023-03-25T05:46:36.282Z,62.80
2023-03-25T05:49:03.049Z,62.41
2023-03-25T05:51:38.649Z,61.88
2023-03-25T05:54:10.937Z,62.03
2023-03-25T05:56:38.304Z,62.03
2023-03-25T05:59:04.931Z,61.60
2023-03-25T06:01:34.098Z,61.86
2023-03-25T06:04:03.733Z,61.27
2023-03-25T06:06:32.076Z,62.17
2023-03-25T06:08:59.264Z,61.79
2023-03-25T06:11:25.819Z,62.63
2023-03-25T06:13:52.657Z,61.61
2023-03-25T06:16:27.953Z,61.82
2023-03-25T06:19:00.197Z,60.14
2023-03-25T06:21:34.994Z,60.63
2023-03-25T06:24:02.443Z,61.26
2023-03-25T06:26:29.353Z,62.35
2023-03-25T06:28:55.891Z,61.17
2023-03-25T06:31:28.398Z,61.78
2023-03-25T06:33:56.176Z,62.20
2023-03-25T06:36:25.692Z,63.02
2023-03-25T06:38:55.567Z,62.05
2023-03-25T06:41:25.063Z,62.43
2023-03-25T06:43:51.821Z,62.49
2023-03-25T06:46:18.369Z,62.16
2023-03-25T06:48:44.949Z,62.76
2023-03-25T06:51:11.681Z,61.29
2023-03-25T06:53:38.245Z,59.55
2023-03-25T06:56:05.369Z,60.13
2023-03-25T06:58:35.183Z,61.25
2023-03-25T07:01:06.650Z,61.54
2023-03-25T07:03:34.160Z,62.51
2023-03-25T07:06:00.763Z,62.55
2023-03-25T07:08:27.381Z,63.16
2023-03-25T07:10:54.314Z,65.63
2023-03-25T07:13:20.809Z,66.95
2023-03-25T07:15:47.500Z,66.34
2023-03-25T07:18:14.014Z,66.17
2023-03-25T07:20:46.032Z,65.65
2023-03-25T07:23:13.288Z,65.05
2023-03-25T07:25:39.861Z,63.36
2023-03-25T07:28:06.543Z,62.47
2023-03-25T07:30:33.092Z,63.27
2023-03-25T07:32:59.737Z,61.94
2023-03-25T07:35:26.368Z,63.01
2023-03-25T07:37:52.849Z,62.49
2023-03-25T07:40:19.444Z,62.06
2023-03-25T07:42:46.065Z,61.73
2023-03-25T07:45:12.798Z,62.32
2023-03-25T07:47:39.710Z,61.27
2023-03-25T07:50:06.989Z,60.00
2023-03-25T07:52:33.863Z,60.02
2023-03-25T07:55:00.931Z,60.01
2023-03-25T07:57:27.857Z,59.43
2023-03-25T07:59:54.410Z,59.77
2023-03-25T08:02:23.827Z,59.30
2023-03-25T08:04:54.748Z,56.77
2023-03-25T08:07:21.557Z,55.94
2023-03-25T08:09:48.085Z,54.00
2023-03-25T08:12:14.672Z,55.21
2023-03-25T08:14:44.175Z,55.22
2023-03-25T08:17:10.999Z,56.30
2023-03-25T08:19:37.716Z,56.07
2023-03-25T08:22:04.263Z,57.21
2023-03-25T08:24:32.584Z,57.29
2023-03-25T08:27:14.965Z,57.24
2023-03-25T08:29:44.257Z,57.35
2023-03-25T08:32:11.101Z,57.82
2023-03-25T08:34:39.772Z,57.17
2023-03-25T08:37:11.136Z,55.61
2023-03-25T08:39:39.844Z,55.52
2023-03-25T08:42:07.968Z,55.56
2023-03-25T08:44:34.952Z,56.95
2023-03-25T08:47:01.806Z,57.01
2023-03-25T08:49:28.526Z,56.52
2023-03-25T08:51:57.556Z,56.76
2023-03-25T08:54:26.085Z,54.84
2023-03-25T08:56:52.864Z,52.18
2023-03-25T08:59:19.572Z,52.34
2023-03-25T09:01:46.105Z,51.78
2023-03-25T09:04:12.703Z,52.89
2023-03-25T09:06:47.660Z,53.54
2023-03-25T09:09:15.537Z,54.20
2023-03-25T09:11:42.055Z,53.28
2023-03-25T09:14:08.584Z,52.33
2023-03-25T09:16:35.153Z,53.23
2023-03-25T09:19:02.194Z,53.69
2023-03-25T09:21:28.899Z,53.91
2023-03-25T09:23:55.600Z,53.15
2023-03-25T09:26:22.114Z,52.64
2023-03-25T09:28:48.660Z,51.40
2023-03-25T09:31:15.469Z,53.63
2023-03-25T09:33:42.098Z,55.09
2023-03-25T09:36:08.963Z,55.01
2023-03-25T09:38:35.660Z,54.28
2023-03-25T09:41:05.242Z,54.89
2023-03-25T09:43:41.139Z,54.75
2023-03-25T09:46:08.087Z,55.93
2023-03-25T09:48:43.107Z,59.26
2023-03-25T09:51:23.397Z,60.25
2023-03-25T09:54:00.676Z,60.18
2023-03-25T09:56:29.126Z,57.49
2023-03-25T09:59:05.585Z,51.96
2023-03-25T10:01:52.035Z,48.47
2023-03-25T10:04:39.978Z,51.21
2023-03-25T10:07:31.873Z,55.91
2023-03-25T10:10:07.591Z,56.83
2023-03-25T10:12:52.485Z,57.37
2023-03-25T10:15:37.819Z,59.80
2023-03-25T10:18:27.782Z,60.00
2023-03-25T10:21:03.516Z,59.44
2023-03-25T10:23:39.473Z,55.48
2023-03-25T10:26:10.897Z,53.30
2023-03-25T10:28:43.527Z,53.02
2023-03-25T10:31:16.777Z,53.12
2023-03-25T10:33:51.455Z,51.85
2023-03-25T10:36:21.390Z,50.72
2023-03-25T10:38:52.238Z,50.64
2023-03-25T10:41:38.223Z,50.09
2023-03-25T10:44:09.704Z,48.92
2023-03-25T10:46:50.341Z,46.65
2023-03-25T10:49:19.629Z,49.01
2023-03-25T10:51:47.216Z,50.37
2023-03-25T10:54:14.422Z,52.73
2023-03-25T10:56:47.032Z,53.62
2023-03-25T10:59:34.940Z,54.99
2023-03-25T11:02:08.494Z,56.67
2023-03-25T11:04:38.428Z,57.02
2023-03-25T11:07:16.747Z,59.68
2023-03-25T11:09:43.433Z,64.51
2023-03-25T11:12:10.087Z,67.19
2023-03-25T11:14:40.136Z,66.87
2023-03-25T11:17:17.195Z,65.73
2023-03-25T11:19:56.508Z,67.11
2023-03-25T11:22:28.186Z,67.58
2023-03-25T11:25:29.912Z,66.01
2023-03-25T11:27:59.232Z,63.96
2023-03-25T11:30:26.591Z,65.18
2023-03-25T11:32:59.285Z,64.47
2023-03-25T11:35:29.226Z,64.64
2023-03-25T11:37:58.767Z,63.39
2023-03-25T11:40:30.658Z,61.42
2023-03-25T11:42:59.134Z,61.04
2023-03-25T11:45:33.827Z,59.03
2023-03-25T11:48:10.356Z,58.40
2023-03-25T11:50:37.922Z,59.50
2023-03-25T11:53:06.070Z,58.87
2023-03-25T11:55:44.087Z,57.05
2023-03-25T11:58:15.812Z,51.77
2023-03-25T12:00:47.642Z,48.04
2023-03-25T12:03:14.513Z,42.53
2023-03-25T12:05:42.003Z,37.15
2023-03-25T12:08:15.232Z,33.55
2023-03-25T12:10:53.535Z,36.05
2023-03-25T12:13:39.658Z,41.57
2023-03-25T12:16:20.604Z,45.78
2023-03-25T12:19:10.741Z,48.52
2023-03-25T12:22:18.937Z,45.83
2023-03-25T12:25:08.218Z,46.29
2023-03-25T12:27:40.981Z,46.49
2023-03-25T12:30:49.701Z,47.36
2023-03-25T12:33:48.736Z,46.67
2023-03-25T12:36:18.406Z,48.61
2023-03-25T12:38:54.967Z,49.75
2023-03-25T12:41:38.912Z,50.92
2023-03-25T12:44:30.890Z,51.90
2023-03-25T12:47:23.946Z,53.54
2023-03-25T12:50:09.378Z,53.63
2023-03-25T12:52:48.405Z,56.04
2023-03-25T12:55:27.111Z,54.91
2023-03-25T12:58:04.206Z,54.08
2023-03-25T13:00:43.105Z,53.10
2023-03-25T13:03:27.955Z,53.27
2023-03-25T13:05:58.482Z,52.05
2023-03-25T13:08:32.555Z,49.63
2023-03-25T13:11:06.463Z,49.67
2023-03-25T13:13:37.772Z,51.32
2023-03-25T13:16:15.116Z,49.76
2023-03-25T13:19:01.492Z,49.04
2023-03-25T13:21:40.837Z,49.02
2023-03-25T13:24:36.030Z,50.18
2023-03-25T13:27:06.262Z,48.75
2023-03-25T13:29:49.750Z,48.51
2023-03-25T13:32:25.237Z,48.78
2023-03-25T13:34:54.969Z,48.04
2023-03-25T13:37:25.895Z,48.82
2023-03-25T13:40:14.673Z,48.39
2023-03-25T13:42:58.331Z,49.47
2023-03-25T13:45:26.481Z,49.49
2023-03-25T13:48:02.116Z,48.89
2023-03-25T13:50:30.952Z,48.52
2023-03-25T13:53:05.614Z,48.12
2023-03-25T13:55:38.343Z,48.66
2023-03-25T13:58:18.333Z,49.36
2023-03-25T14:00:48.016Z,54.21
2023-03-25T14:03:39.285Z,55.22
2023-03-25T14:06:35.038Z,55.25
2023-03-25T14:09:33.022Z,55.56
2023-03-25T14:12:10.680Z,55.48
2023-03-25T14:14:50.827Z,54.58
2023-03-25T14:17:18.537Z,52.70
2023-03-25T14:19:50.143Z,50.40
2023-03-25T14:22:18.187Z,49.72
2023-03-25T14:24:47.800Z,50.06
2023-03-25T14:27:24.792Z,49.69
2023-03-25T14:30:01.067Z,49.35
2023-03-25T14:32:32.620Z,49.38
2023-03-25T14:35:33.647Z,50.27
2023-03-25T14:38:08.271Z,50.32
2023-03-25T14:40:58.998Z,51.20
2023-03-25T14:43:40.428Z,52.00
2023-03-25T14:46:13.781Z,51.67
2023-03-25T14:48:55.906Z,51.02
2023-03-25T14:51:25.463Z,51.84
2023-03-25T14:54:06.574Z,52.09
2023-03-25T14:56:35.757Z,51.92
2023-03-25T14:59:14.056Z,52.26
2023-03-25T15:01:42.785Z,52.63
2023-03-25T15:04:21.944Z,51.66
2023-03-25T15:06:51.912Z,53.80
2023-03-25T15:09:19.161Z,54.76
2023-03-25T15:11:55.131Z,60.46
2023-03-25T15:14:27.604Z,62.58
2023-03-25T15:17:00.819Z,60.32
2023-03-25T15:19:28.178Z,59.71
2023-03-25T15:21:57.800Z,59.71
2023-03-25T15:24:27.352Z,59.80
2023-03-25T15:26:56.173Z,57.81
2023-03-25T15:29:47.592Z,58.60
2023-03-25T15:32:23.295Z,58.74
2023-03-25T15:35:31.501Z,57.91
2023-03-25T15:38:25.812Z,56.96
2023-03-25T15:41:19.547Z,58.10
2023-03-25T15:44:04.625Z,57.33
2023-03-25T15:46:31.298Z,58.46
2023-03-25T15:49:35.585Z,58.27
2023-03-25T15:52:25.656Z,58.90
2023-03-25T15:54:57.353Z,58.31
2023-03-25T15:57:29.356Z,57.81
2023-03-25T16:00:19.008Z,60.09
2023-03-25T16:03:01.868Z,59.13
2023-03-25T16:05:33.974Z,59.03
2023-03-25T16:08:15.749Z,58.39
2023-03-25T16:10:44.739Z,58.30
2023-03-25T16:13:23.948Z,59.62
2023-03-25T16:16:01.371Z,58.83
2023-03-25T16:18:28.257Z,58.09
2023-03-25T16:21:01.663Z,58.53
2023-03-25T16:23:29.696Z,58.19
2023-03-25T16:25:56.807Z,57.19
2023-03-25T16:28:28.623Z,57.07
2023-03-25T16:30:58.542Z,57.12
2023-03-25T16:33:45.503Z,57.46
2023-03-25T16:36:17.628Z,59.19
2023-03-25T16:38:44.351Z,59.91
2023-03-25T16:41:15.445Z,59.53
2023-03-25T16:43:42.460Z,58.56
2023-03-25T16:46:10.707Z,59.64
2023-03-25T16:48:49.306Z,58.85
2023-03-25T16:51:25.554Z,59.19
2023-03-25T16:53:55.910Z,59.59
2023-03-25T16:56:24.929Z,59.71
2023-03-25T16:59:19.274Z,59.69
2023-03-25T17:01:53.192Z,59.14
2023-03-25T17:04:22.780Z,59.52
2023-03-25T17:06:52.989Z,59.43
2023-03-25T17:09:21.762Z,59.96
2023-03-25T17:11:53.176Z,60.44
2023-03-25T17:14:22.136Z,60.79
2023-03-25T17:16:52.355Z,60.36
2023-03-25T17:19:20.404Z,60.89
2023-03-25T17:22:20.099Z,60.64
2023-03-25T17:24:58.289Z,61.56
2023-03-25T17:27:33.995Z,62.07
2023-03-25T17:30:17.659Z,61.99
2023-03-25T17:32:44.943Z,61.74
2023-03-25T17:35:30.908Z,62.40
2023-03-25T17:37:57.763Z,62.76
2023-03-25T17:40:26.034Z,62.23
2023-03-25T17:42:53.294Z,62.82
2023-03-25T17:45:22.505Z,62.08
2023-03-25T17:47:51.382Z,61.58
2023-03-25T17:50:25.345Z,62.16
2023-03-25T17:52:51.896Z,61.12
2023-03-25T17:55:18.587Z,61.07
2023-03-25T17:57:45.128Z,61.25
2023-03-25T18:00:17.222Z,61.66
2023-03-25T18:02:45.112Z,62.12
2023-03-25T18:05:12.192Z,61.85
2023-03-25T18:07:39.151Z,62.18
2023-03-25T18:10:32.242Z,62.09
2023-03-25T18:12:58.859Z,61.89
2023-03-25T18:15:25.575Z,62.43
2023-03-25T18:17:53.248Z,62.45
2023-03-25T18:20:25.919Z,63.18
2023-03-25T18:22:54.671Z,63.22
2023-03-25T18:25:22.406Z,63.46
2023-03-25T18:27:53.814Z,63.38
2023-03-25T18:30:31.857Z,63.34
2023-03-25T18:32:58.451Z,63.89
2023-03-25T18:35:25.687Z,64.16
2023-03-25T18:37:52.674Z,64.84
2023-03-25T18:40:27.153Z,64.56
2023-03-25T18:42:56.967Z,64.41
2023-03-25T18:45:24.941Z,63.88
2023-03-25T18:47:52.632Z,64.19
2023-03-25T18:50:37.618Z,63.62
2023-03-25T18:53:05.692Z,64.29
2023-03-25T18:55:34.032Z,64.78
2023-03-25T18:58:00.933Z,66.82
2023-03-25T19:00:31.100Z,70.43
2023-03-25T19:05:25.333Z,73.49
2023-03-25T19:07:52.679Z,73.49
2023-03-25T19:10:28.743Z,74.28
2023-03-25T19:12:55.902Z,73.87
2023-03-25T19:15:26.785Z,73.25
2023-03-25T19:18:03.370Z,72.76
2023-03-25T19:20:33.635Z,72.09
2023-03-25T19:23:01.181Z,71.57
2023-03-25T19:25:28.203Z,71.59
2023-03-25T19:27:56.096Z,71.37
2023-03-25T19:30:24.177Z,69.59
2023-03-25T19:32:53.898Z,67.93
2023-03-25T19:35:21.541Z,68.25
2023-03-25T19:37:50.801Z,68.14
2023-03-25T19:40:24.680Z,68.43
2023-03-25T19:42:54.336Z,68.91
2023-03-25T19:45:21.253Z,68.22
2023-03-25T19:47:48.222Z,70.99
2023-03-25T19:50:18.943Z,71.71
2023-03-25T19:52:47.632Z,71.29
2023-03-25T19:55:15.120Z,71.37
2023-03-25T19:57:42.907Z,72.72
2023-03-25T20:00:15.172Z,72.81
2023-03-25T20:02:52.694Z,73.39
2023-03-25T20:05:21.769Z,74.40
2023-03-25T20:07:50.930Z,75.86
2023-03-25T20:10:20.610Z,75.21
2023-03-25T20:12:49.015Z,76.23
2023-03-25T20:15:17.427Z,77.33
2023-03-25T20:17:44.053Z,77.54
2023-03-25T20:20:12.411Z,76.26
2023-03-25T20:22:39.508Z,75.02
2023-03-25T20:25:09.015Z,74.57
2023-03-25T20:27:35.755Z,73.32
2023-03-25T20:30:03.751Z,73.63
2023-03-25T20:32:40.038Z,74.40
2023-03-25T20:35:10.266Z,72.97
2023-03-25T20:37:38.600Z,73.00
2023-03-25T20:40:11.060Z,73.27
2023-03-25T20:42:39.482Z,74.67
2023-03-25T20:45:06.703Z,73.21
2023-03-25T20:47:33.366Z,72.75
2023-03-25T20:50:00.027Z,72.78
2023-03-25T20:52:28.861Z,73.64
2023-03-25T20:54:55.610Z,75.00
2023-03-25T20:57:22.638Z,74.37
2023-03-25T20:59:49.185Z,75.14
2023-03-25T21:02:17.036Z,74.11
2023-03-25T21:04:43.634Z,75.99
2023-03-25T21:07:11.371Z,76.70
2023-03-25T21:09:38.136Z,75.00
2023-03-25T21:12:05.088Z,77.66
2023-03-25T21:14:31.636Z,77.60
2023-03-25T21:16:58.419Z,78.04
2023-03-25T21:19:25.162Z,77.78
2023-03-25T21:21:51.878Z,78.49
2023-03-25T21:24:21.517Z,77.26
2023-03-25T21:26:49.120Z,76.96
2023-03-25T21:29:15.648Z,78.19
2023-03-25T21:31:42.534Z,78.93
2023-03-25T21:34:09.886Z,78.56
2023-03-25T21:36:36.674Z,78.94
2023-03-25T21:39:06.820Z,78.85
2023-03-25T21:41:33.767Z,79.46
2023-03-25T21:44:00.667Z,79.07
2023-03-25T21:46:27.850Z,78.51
2023-03-25T21:48:58.233Z,79.07
2023-03-25T21:51:26.566Z,78.84
2023-03-25T21:53:53.217Z,77.65
2023-03-25T21:56:25.003Z,77.70
2023-03-25T21:58:52.420Z,78.40
2023-03-25T22:01:28.377Z,77.50
2023-03-25T22:03:57.296Z,77.82
2023-03-25T22:06:26.671Z,76.72
2023-03-25T22:08:53.687Z,76.60
2023-03-25T22:11:24.101Z,76.40
2023-03-25T22:13:51.756Z,76.69
2023-03-25T22:16:20.605Z,77.92
2023-03-25T22:18:47.990Z,77.20
2023-03-25T22:21:17.539Z,76.39
2023-03-25T22:23:46.199Z,76.37
2023-03-25T22:26:14.561Z,76.59
2023-03-25T22:28:41.548Z,75.67
2023-03-25T22:31:16.343Z,75.59
2023-03-25T22:33:43.787Z,75.60
2023-03-25T22:36:15.560Z,76.23
2023-03-25T22:38:48.353Z,75.24
2023-03-25T22:41:16.655Z,75.85
2023-03-25T22:43:45.330Z,75.27
2023-03-25T22:46:12.309Z,75.27
2023-03-25T22:48:39.353Z,75.04
2023-03-25T22:51:11.647Z,74.94
2023-03-25T22:53:38.952Z,74.37
2023-03-25T22:56:06.504Z,74.69
2023-03-25T22:58:33.512Z,74.07
2023-03-25T23:01:04.863Z,73.76
2023-03-25T23:03:31.626Z,73.70
2023-03-25T23:06:01.135Z,74.17
2023-03-25T23:08:30.097Z,73.34
2023-03-25T23:11:03.123Z,73.53
2023-03-25T23:13:30.448Z,73.83
2023-03-25T23:16:02.120Z,73.17
2023-03-25T23:18:28.863Z,74.26
2023-03-25T23:20:56.265Z,73.57
2023-03-25T23:23:24.469Z,73.97
2023-03-25T23:26:03.661Z,74.06
2023-03-25T23:28:34.355Z,74.38
2023-03-25T23:31:02.001Z,73.12
2023-03-25T23:33:29.242Z,73.90
2023-03-25T23:36:00.667Z,73.15
2023-03-25T23:38:27.868Z,72.93
2023-03-25T23:41:02.210Z,72.83
2023-03-25T23:43:29.198Z,72.88
2023-03-25T23:45:56.317Z,72.45
2023-03-25T23:48:24.416Z,73.26
2023-03-25T23:50:51.428Z,72.85
2023-03-25T23:53:18.354Z,72.38
2023-03-25T23:55:46.098Z,72.37
2023-03-25T23:58:13.255Z,72.22
